createdAt,value
2019-03-05T00:01:35.560Z,79.94
2019-03-05T00:04:06.109Z,80.02
2019-03-05T00:06:35.928Z,79.83
2019-03-05T00:09:08.365Z,79.99
2019-03-05T00:11:38.307Z,80.20
2019-03-05T00:14:08.101Z,80.50
2019-03-05T00:16:37.865Z,80.61
2019-03-05T00:19:07.706Z,80.32
2019-03-05T00:21:37.514Z,80.00
2019-03-05T00:24:43.325Z,79.92
2019-03-05T00:27:13.117Z,79.78
2019-03-05T00:29:57.519Z,79.52
2019-03-05T00:32:27.321Z,79.64
2019-03-05T00:35:19.537Z,79.32
2019-03-05T00:38:01.023Z,80.19
2019-03-05T00:40:39.403Z,80.76
2019-03-05T00:43:15.116Z,80.65
2019-03-05T00:45:47.998Z,80.09
2019-03-05T00:48:26.687Z,80.09
2019-03-05T00:51:25.064Z,80.00
2019-03-05T00:54:18.468Z,80.06
2019-03-05T00:56:51.303Z,80.38
2019-03-05T00:59:32.948Z,80.44
2019-03-05T01:02:20.640Z,80.83
2019-03-05T01:05:11.767Z,80.82
2019-03-05T01:07:41.483Z,80.67
2019-03-05T01:10:13.052Z,80.67
2019-03-05T01:12:42.915Z,80.34
2019-03-05T01:15:12.682Z,79.95
2019-03-05T01:17:42.499Z,79.48
2019-03-05T01:20:12.889Z,79.03
2019-03-05T01:22:42.839Z,78.77
2019-03-05T01:25:30.257Z,78.29
2019-03-05T01:28:00.067Z,77.66
2019-03-05T01:30:53.526Z,75.60
2019-03-05T01:33:24.559Z,75.81
2019-03-05T01:36:04.795Z,76.14
2019-03-05T01:38:36.124Z,76.25
2019-03-05T01:41:07.366Z,76.22
2019-03-05T01:43:37.298Z,75.81
2019-03-05T01:46:07.083Z,75.28
2019-03-05T01:48:37.010Z,75.09
2019-03-05T01:51:07.236Z,74.84
2019-03-05T01:53:38.036Z,74.41
2019-03-05T01:56:07.814Z,73.78
2019-03-05T01:58:37.987Z,74.65
2019-03-05T02:01:07.766Z,75.08
2019-03-05T02:03:37.833Z,75.58
2019-03-05T02:06:07.792Z,76.12
2019-03-05T02:08:37.881Z,76.64
2019-03-05T02:11:08.581Z,76.25
2019-03-05T02:13:38.379Z,76.99
2019-03-05T02:16:08.175Z,77.29
2019-03-05T02:18:37.977Z,77.57
2019-03-05T02:21:07.782Z,77.66
2019-03-05T02:23:49.717Z,77.66
2019-03-05T02:26:49.998Z,77.83
2019-03-05T02:29:35.020Z,78.24
2019-03-05T02:32:31.956Z,78.74
2019-03-05T02:35:13.625Z,78.99
2019-03-05T02:38:06.129Z,78.83
2019-03-05T02:40:42.028Z,78.86
2019-03-05T02:43:14.774Z,78.66
2019-03-05T02:45:56.643Z,78.71
2019-03-05T02:48:48.684Z,79.10
2019-03-05T02:51:34.055Z,79.68
2019-03-05T02:54:40.376Z,79.77
2019-03-05T02:57:09.327Z,79.32
2019-03-05T02:59:39.087Z,78.85
2019-03-05T03:02:28.273Z,78.38
2019-03-05T03:05:05.625Z,78.61
2019-03-05T03:07:35.445Z,78.01
2019-03-05T03:10:19.626Z,78.37
2019-03-05T03:12:49.495Z,78.02
2019-03-05T03:15:19.616Z,78.67
2019-03-05T03:17:49.499Z,79.16
2019-03-05T03:20:19.986Z,79.58
2019-03-05T03:22:50.044Z,79.81
2019-03-05T03:25:19.956Z,80.10
2019-03-05T03:27:49.746Z,80.38
2019-03-05T03:30:21.119Z,79.00
2019-03-05T03:32:51.763Z,80.03
2019-03-05T03:35:21.718Z,80.24
2019-03-05T03:37:51.517Z,78.93
2019-03-05T03:40:22.339Z,79.21
2019-03-05T03:42:52.135Z,80.15
2019-03-05T03:45:22.297Z,80.92
2019-03-05T03:47:52.109Z,80.55
2019-03-05T03:50:21.948Z,81.00
2019-03-05T03:52:51.734Z,81.02
2019-03-05T03:55:21.528Z,81.00
2019-03-05T03:57:51.383Z,80.76
2019-03-05T04:00:22.057Z,80.47
2019-03-05T04:02:51.843Z,80.75
2019-03-05T04:05:21.568Z,80.58
2019-03-05T04:07:51.377Z,80.58
2019-03-05T04:10:21.102Z,80.90
2019-03-05T04:12:50.719Z,81.30
2019-03-05T04:15:20.492Z,80.22
2019-03-05T04:17:50.226Z,80.72
2019-03-05T04:20:28.624Z,81.01
2019-03-05T04:22:58.445Z,81.48
2019-03-05T04:25:28.120Z,80.61
2019-03-05T04:27:57.899Z,81.22
2019-03-05T04:30:27.666Z,81.96
2019-03-05T04:32:57.451Z,81.48
2019-03-05T04:35:27.248Z,82.36
2019-03-05T04:37:56.985Z,82.49
2019-03-05T04:40:26.800Z,83.15
2019-03-05T04:42:56.582Z,82.89
2019-03-05T04:45:44.835Z,82.29
2019-03-05T04:48:14.992Z,82.57
2019-03-05T04:50:58.938Z,82.20
2019-03-05T04:53:28.687Z,82.12
2019-03-05T04:55:58.479Z,81.98
2019-03-05T04:58:28.257Z,81.49
2019-03-05T05:00:58.019Z,81.10
2019-03-05T05:03:27.766Z,81.50
2019-03-05T05:05:57.662Z,80.96
2019-03-05T05:08:27.616Z,80.96
2019-03-05T05:10:58.229Z,80.58
2019-03-05T05:13:28.166Z,81.04
2019-03-05T05:15:57.975Z,81.42
2019-03-05T05:18:27.712Z,80.87
2019-03-05T05:20:57.752Z,80.53
2019-03-05T05:23:27.482Z,80.46
2019-03-05T05:25:57.244Z,80.24
2019-03-05T05:28:27.023Z,79.76
2019-03-05T05:30:57.328Z,79.88
2019-03-05T05:33:27.099Z,80.12
2019-03-05T05:35:56.917Z,79.34
2019-03-05T05:38:26.685Z,79.63
2019-03-05T05:40:56.440Z,79.58
2019-03-05T05:43:31.268Z,83.42
2019-03-05T05:46:01.048Z,79.63
2019-03-05T05:48:30.770Z,74.79
2019-03-05T05:51:00.517Z,72.03
2019-03-05T05:53:30.352Z,72.33
2019-03-05T05:56:00.107Z,70.47
2019-03-05T05:58:29.884Z,69.96
2019-03-05T06:01:01.276Z,68.32
2019-03-05T06:03:31.245Z,69.52
2019-03-05T06:06:01.197Z,72.45
2019-03-05T06:08:30.876Z,74.16
2019-03-05T06:11:00.694Z,75.22
2019-03-05T06:13:30.479Z,75.43
2019-03-05T06:16:00.281Z,76.28
2019-03-05T06:18:29.944Z,76.62
2019-03-05T06:21:00.099Z,77.82
2019-03-05T06:23:29.804Z,77.53
2019-03-05T06:25:59.453Z,76.52
2019-03-05T06:28:29.205Z,74.11
2019-03-05T06:30:59.105Z,70.37
2019-03-05T06:33:28.927Z,67.25
2019-03-05T06:35:59.140Z,65.28
2019-03-05T06:38:28.905Z,65.82
2019-03-05T06:40:58.793Z,63.59
2019-03-05T06:43:28.482Z,60.66
2019-03-05T06:46:01.436Z,59.70
2019-03-05T06:48:31.172Z,58.48
2019-03-05T06:51:00.936Z,56.79
2019-03-05T06:53:32.825Z,56.88
2019-03-05T06:56:02.615Z,55.35
2019-03-05T06:58:32.437Z,54.84
2019-03-05T07:01:02.357Z,54.59
2019-03-05T07:03:32.119Z,53.54
2019-03-05T07:06:38.678Z,55.34
2019-03-05T07:09:20.631Z,53.69
2019-03-05T07:12:10.143Z,53.41
2019-03-05T07:14:58.193Z,53.67
2019-03-05T07:17:36.777Z,51.77
2019-03-05T07:20:22.524Z,51.68
2019-03-05T07:22:55.378Z,51.35
2019-03-05T07:25:26.026Z,54.32
2019-03-05T07:27:55.803Z,58.04
2019-03-05T07:30:25.562Z,52.58
2019-03-05T07:32:55.876Z,49.87
2019-03-05T07:35:26.013Z,51.63
2019-03-05T07:37:55.995Z,53.13
2019-03-05T07:40:25.819Z,53.33
2019-03-05T07:42:58.510Z,53.21
2019-03-05T07:45:28.351Z,52.89
2019-03-05T07:48:00.186Z,53.09
2019-03-05T07:50:30.850Z,54.39
2019-03-05T07:53:00.720Z,53.58
2019-03-05T07:55:30.953Z,52.63
2019-03-05T07:58:00.749Z,50.94
2019-03-05T08:00:30.541Z,50.92
2019-03-05T08:03:00.324Z,49.90
2019-03-05T08:05:32.057Z,49.83
2019-03-05T08:08:38.360Z,49.68
2019-03-05T08:11:08.085Z,48.80
2019-03-05T08:13:40.868Z,50.13
2019-03-05T08:16:12.351Z,49.14
2019-03-05T08:18:42.138Z,47.70
2019-03-05T08:21:12.245Z,47.18
2019-03-05T08:23:42.136Z,46.65
2019-03-05T08:26:12.812Z,47.02
2019-03-05T08:28:42.573Z,47.73
2019-03-05T08:31:12.763Z,46.07
2019-03-05T08:33:42.546Z,44.96
2019-03-05T08:36:12.586Z,45.04
2019-03-05T08:38:42.401Z,51.43
2019-03-05T08:41:14.596Z,52.42
2019-03-05T08:43:46.097Z,53.31
2019-03-05T08:46:15.853Z,54.95
2019-03-05T08:48:46.113Z,58.09
2019-03-05T08:51:16.978Z,57.05
2019-03-05T08:53:49.717Z,57.74
2019-03-05T08:56:19.767Z,57.89
2019-03-05T08:58:49.939Z,57.18
2019-03-05T09:01:19.904Z,57.60
2019-03-05T09:03:52.885Z,56.34
2019-03-05T09:06:23.049Z,55.04
2019-03-05T09:08:52.873Z,56.15
2019-03-05T09:11:24.882Z,56.38
2019-03-05T09:13:55.239Z,55.49
2019-03-05T09:16:27.946Z,55.13
2019-03-05T09:18:59.807Z,53.17
2019-03-05T09:21:33.112Z,52.52
2019-03-05T09:24:02.912Z,51.14
2019-03-05T09:26:32.684Z,51.75
2019-03-05T09:29:02.601Z,49.89
2019-03-05T09:31:33.271Z,50.69
2019-03-05T09:34:03.179Z,51.56
2019-03-05T09:36:33.081Z,50.98
2019-03-05T09:39:03.279Z,50.85
2019-03-05T09:41:33.241Z,50.12
2019-03-05T09:44:03.123Z,50.26
2019-03-05T09:46:33.243Z,48.94
2019-03-05T09:49:03.069Z,48.74
2019-03-05T09:51:33.158Z,49.03
2019-03-05T09:54:02.951Z,49.17
2019-03-05T09:56:32.745Z,47.46
2019-03-05T09:59:02.576Z,46.27
2019-03-05T10:01:32.494Z,46.44
2019-03-05T10:04:02.805Z,44.57
2019-03-05T10:06:32.686Z,42.14
2019-03-05T10:09:02.474Z,41.71
2019-03-05T10:11:32.267Z,40.83
2019-03-05T10:14:04.706Z,40.09
2019-03-05T10:16:34.566Z,39.53
2019-03-05T10:19:04.498Z,37.41
2019-03-05T10:21:45.551Z,38.56
2019-03-05T10:24:10.539Z,38.80
2019-03-05T10:26:38.375Z,37.22
2019-03-05T10:29:08.218Z,35.37
2019-03-05T10:31:38.062Z,36.50
2019-03-05T10:34:07.920Z,36.09
2019-03-05T10:36:37.688Z,36.71
2019-03-05T10:39:16.206Z,36.77
2019-03-05T10:41:46.605Z,34.27
2019-03-05T10:44:16.511Z,33.68
2019-03-05T10:46:46.716Z,34.32
2019-03-05T10:49:16.724Z,33.21
2019-03-05T10:51:46.594Z,33.19
2019-03-05T10:54:18.220Z,34.23
2019-03-05T10:56:48.056Z,32.04
2019-03-05T10:59:17.695Z,31.36
2019-03-05T11:01:49.008Z,30.71
2019-03-05T11:04:18.796Z,32.19
2019-03-05T11:06:48.556Z,32.93
2019-03-05T11:09:19.914Z,31.97
2019-03-05T11:11:50.478Z,30.81
2019-03-05T11:14:20.274Z,30.20
2019-03-05T11:16:50.151Z,29.09
2019-03-05T11:19:19.980Z,29.64
2019-03-05T11:21:49.780Z,29.25
2019-03-05T11:24:19.545Z,29.05
2019-03-05T11:26:49.241Z,28.73
2019-03-05T11:29:22.385Z,29.19
2019-03-05T11:31:52.467Z,29.22
2019-03-05T11:34:25.153Z,28.81
2019-03-05T11:36:54.957Z,26.58
2019-03-05T11:39:28.153Z,26.69
2019-03-05T11:41:57.931Z,27.47
2019-03-05T11:44:27.706Z,27.30
2019-03-05T11:47:00.686Z,25.75
2019-03-05T11:49:30.496Z,25.85
2019-03-05T11:52:02.623Z,26.71
2019-03-05T11:54:32.417Z,26.33
2019-03-05T11:57:03.737Z,26.89
2019-03-05T11:59:33.981Z,27.27
2019-03-05T12:02:06.122Z,27.20
2019-03-05T12:04:36.944Z,26.95
2019-03-05T12:07:08.803Z,27.52
2019-03-05T12:09:41.052Z,28.07
2019-03-05T12:12:12.369Z,27.82
2019-03-05T12:14:42.463Z,27.51
2019-03-05T12:17:12.910Z,26.67
2019-03-05T12:19:42.846Z,26.61
2019-03-05T12:22:12.617Z,26.89
2019-03-05T12:24:45.879Z,27.16
2019-03-05T12:27:15.895Z,28.12
2019-03-05T12:29:45.599Z,28.84
2019-03-05T12:32:15.484Z,28.16
2019-03-05T12:34:48.070Z,28.40
2019-03-05T12:37:18.566Z,28.71
2019-03-05T12:39:48.358Z,28.90
2019-03-05T12:42:18.172Z,30.19
2019-03-05T12:44:49.582Z,31.16
2019-03-05T12:47:21.218Z,31.27
2019-03-05T12:49:51.414Z,31.69
2019-03-05T12:52:21.185Z,32.74
2019-03-05T12:54:50.941Z,31.77
2019-03-05T12:57:20.674Z,32.45
2019-03-05T12:59:50.394Z,32.47
2019-03-05T13:02:20.293Z,32.66
2019-03-05T13:04:50.140Z,33.01
2019-03-05T13:07:19.952Z,34.07
2019-03-05T13:09:52.587Z,34.73
2019-03-05T13:12:21.506Z,34.74
2019-03-05T13:14:51.291Z,35.19
2019-03-05T13:17:21.558Z,35.13
2019-03-05T13:19:53.583Z,35.99
2019-03-05T13:22:24.772Z,36.31
2019-03-05T13:24:54.378Z,36.16
2019-03-05T13:27:24.094Z,36.11
2019-03-05T13:29:53.872Z,35.87
2019-03-05T13:32:23.664Z,35.90
2019-03-05T13:34:53.650Z,35.11
2019-03-05T13:37:24.887Z,33.84
2019-03-05T13:39:58.252Z,33.41
2019-03-05T13:42:29.064Z,33.48
2019-03-05T13:44:58.846Z,34.33
2019-03-05T13:47:29.189Z,34.96
2019-03-05T13:50:08.485Z,34.32
2019-03-05T13:52:57.695Z,33.36
2019-03-05T13:55:30.422Z,33.83
2019-03-05T13:58:20.879Z,35.06
2019-03-05T14:00:51.038Z,35.59
2019-03-05T14:03:27.432Z,35.13
2019-03-05T14:06:19.813Z,35.15
2019-03-05T14:09:16.567Z,35.27
2019-03-05T14:11:49.281Z,36.13
2019-03-05T14:14:24.088Z,36.05
2019-03-05T14:17:01.663Z,35.14
2019-03-05T14:19:31.379Z,33.02
2019-03-05T14:22:01.226Z,33.34
2019-03-05T14:24:31.040Z,33.19
2019-03-05T14:27:00.782Z,32.90
2019-03-05T14:29:30.558Z,33.20
2019-03-05T14:32:00.354Z,30.93
2019-03-05T14:34:30.281Z,33.77
2019-03-05T14:37:00.071Z,34.62
2019-03-05T14:39:34.825Z,33.00
2019-03-05T14:42:07.759Z,31.56
2019-03-05T14:44:40.328Z,32.14
2019-03-05T14:47:13.031Z,32.92
2019-03-05T14:49:42.783Z,31.53
2019-03-05T14:52:12.323Z,30.86
2019-03-05T14:54:42.180Z,30.18
2019-03-05T14:57:12.895Z,30.26
2019-03-05T14:59:43.232Z,30.54
2019-03-05T15:02:13.125Z,30.80
2019-03-05T15:04:45.365Z,31.80
2019-03-05T15:07:15.284Z,31.55
2019-03-05T15:09:45.110Z,31.37
2019-03-05T15:12:15.762Z,29.06
2019-03-05T15:14:47.287Z,27.96
2019-03-05T15:17:19.837Z,27.23
2019-03-05T15:19:51.146Z,26.80
2019-03-05T15:22:23.388Z,27.35
2019-03-05T15:24:53.194Z,27.89
2019-03-05T15:27:22.953Z,28.79
2019-03-05T15:29:54.092Z,29.34
2019-03-05T15:32:23.962Z,28.89
2019-03-05T15:34:55.050Z,26.69
2019-03-05T15:37:24.890Z,26.95
2019-03-05T15:39:55.554Z,27.09
2019-03-05T15:42:28.649Z,27.57
2019-03-05T15:44:57.449Z,28.12
2019-03-05T15:47:28.464Z,28.48
2019-03-05T15:49:58.560Z,29.13
2019-03-05T15:52:28.808Z,28.82
2019-03-05T15:54:59.912Z,29.10
2019-03-05T15:57:30.147Z,29.52
2019-03-05T16:00:00.503Z,30.41
2019-03-05T16:02:31.292Z,31.20
2019-03-05T16:05:11.300Z,31.35
2019-03-05T16:07:32.626Z,31.74
2019-03-05T16:10:02.883Z,31.23
2019-03-05T16:12:33.034Z,31.80
2019-03-05T16:15:05.175Z,31.98
2019-03-05T16:17:35.252Z,32.36
2019-03-05T16:20:08.184Z,30.05
2019-03-05T16:22:38.164Z,29.69
2019-03-05T16:25:13.738Z,30.52
2019-03-05T16:27:43.171Z,31.35
2019-03-05T16:30:36.886Z,32.57
2019-03-05T16:33:24.846Z,33.15
2019-03-05T16:36:08.265Z,34.04
2019-03-05T16:38:46.714Z,34.72
2019-03-05T16:41:34.636Z,35.20
2019-03-05T16:44:15.422Z,39.17
2019-03-05T16:47:04.094Z,36.39
2019-03-05T16:49:52.156Z,37.22
2019-03-05T16:52:26.170Z,36.43
2019-03-05T16:55:12.868Z,36.55
2019-03-05T16:57:47.917Z,36.86
2019-03-05T17:00:22.423Z,37.03
2019-03-05T17:03:06.094Z,37.56
2019-03-05T17:05:40.227Z,38.05
2019-03-05T17:08:12.554Z,38.85
2019-03-05T17:10:46.676Z,39.32
2019-03-05T17:13:16.564Z,39.96
2019-03-05T17:15:46.383Z,40.41
2019-03-05T17:18:16.204Z,40.71
2019-03-05T17:20:46.614Z,41.10
2019-03-05T17:23:16.422Z,41.49
2019-03-05T17:25:46.055Z,41.72
2019-03-05T17:28:16.026Z,41.94
2019-03-05T17:30:45.927Z,42.29
2019-03-05T17:33:16.324Z,42.54
2019-03-05T17:35:46.124Z,42.58
2019-03-05T17:38:16.312Z,42.53
2019-03-05T17:40:46.125Z,42.56
2019-03-05T17:43:16.899Z,43.55
2019-03-05T17:45:46.691Z,45.39
2019-03-05T17:48:16.477Z,43.00
2019-03-05T17:50:46.393Z,42.84
2019-03-05T17:53:16.372Z,43.49
2019-03-05T17:55:46.673Z,44.13
2019-03-05T17:58:16.304Z,44.73
2019-03-05T18:00:47.649Z,45.30
2019-03-05T18:03:17.571Z,45.53
2019-03-05T18:05:50.811Z,46.30
2019-03-05T18:08:21.560Z,46.47
2019-03-05T18:10:51.666Z,46.40
2019-03-05T18:13:21.421Z,46.24
2019-03-05T18:15:51.201Z,46.37
2019-03-05T18:18:21.698Z,46.70
2019-03-05T18:20:51.672Z,47.20
2019-03-05T18:23:21.459Z,47.60
2019-03-05T18:25:51.302Z,47.37
2019-03-05T18:28:22.020Z,47.90
2019-03-05T18:30:52.772Z,47.96
2019-03-05T18:33:22.631Z,47.93
2019-03-05T18:35:52.782Z,47.69
2019-03-05T18:38:22.923Z,47.20
2019-03-05T18:40:53.225Z,46.89
2019-03-05T18:43:22.926Z,46.85
2019-03-05T18:45:53.781Z,47.37
2019-03-05T18:48:24.614Z,47.92
2019-03-05T18:50:54.767Z,48.41
2019-03-05T18:53:25.469Z,49.30
2019-03-05T18:55:55.399Z,49.92
2019-03-05T18:58:27.449Z,53.41
2019-03-05T19:00:57.673Z,51.32
2019-03-05T19:03:30.148Z,48.86
2019-03-05T19:06:00.129Z,49.18
2019-03-05T19:08:29.962Z,50.37
2019-03-05T19:11:02.059Z,51.92
2019-03-05T19:13:32.203Z,52.25
2019-03-05T19:16:02.571Z,52.66
2019-03-05T19:18:32.663Z,52.98
2019-03-05T19:21:02.770Z,53.52
2019-03-05T19:23:32.556Z,53.61
2019-03-05T19:26:02.409Z,53.35
2019-03-05T19:28:43.046Z,52.85
2019-03-05T19:31:13.073Z,52.05
2019-03-05T19:33:43.799Z,51.89
2019-03-05T19:36:14.636Z,52.00
2019-03-05T19:38:44.906Z,52.15
2019-03-05T19:41:14.724Z,52.44
2019-03-05T19:43:44.536Z,52.60
2019-03-05T19:46:15.694Z,51.32
2019-03-05T19:48:46.823Z,51.77
2019-03-05T19:51:17.041Z,52.08
2019-03-05T19:53:46.852Z,52.39
2019-03-05T19:56:17.842Z,52.76
2019-03-05T19:58:49.256Z,53.11
2019-03-05T20:01:20.717Z,54.78
2019-03-05T20:03:51.392Z,56.83
2019-03-05T20:06:21.209Z,53.90
2019-03-05T20:08:51.374Z,53.47
2019-03-05T20:11:21.255Z,52.62
2019-03-05T20:13:54.072Z,52.65
2019-03-05T20:16:23.948Z,53.20
2019-03-05T20:18:54.124Z,53.48
2019-03-05T20:21:28.044Z,54.16
2019-03-05T20:23:58.030Z,54.35
2019-03-05T20:26:27.985Z,54.60
2019-03-05T20:28:57.769Z,54.70
2019-03-05T20:31:30.843Z,54.84
2019-03-05T20:34:05.318Z,55.14
2019-03-05T20:36:35.564Z,55.39
2019-03-05T20:39:06.624Z,55.35
2019-03-05T20:41:36.519Z,55.31
2019-03-05T20:44:08.895Z,55.34
2019-03-05T20:46:42.011Z,55.91
2019-03-05T20:49:12.504Z,56.21
2019-03-05T20:51:44.175Z,55.84
2019-03-05T20:54:18.237Z,55.46
2019-03-05T20:56:49.509Z,55.26
2019-03-05T20:59:20.340Z,55.12
2019-03-05T21:01:50.921Z,55.45
2019-03-05T21:04:23.535Z,55.79
2019-03-05T21:06:53.860Z,55.68
2019-03-05T21:09:25.000Z,55.88
2019-03-05T21:11:56.758Z,56.74
2019-03-05T21:14:26.603Z,56.81
2019-03-05T21:16:59.581Z,57.45
2019-03-05T21:19:29.809Z,57.43
2019-03-05T21:22:01.550Z,58.12
2019-03-05T21:24:31.359Z,58.02
2019-03-05T21:27:01.463Z,58.06
2019-03-05T21:29:31.381Z,58.97
2019-03-05T21:32:02.894Z,58.95
2019-03-05T21:34:33.111Z,58.88
2019-03-05T21:37:04.012Z,59.34
2019-03-05T21:39:34.003Z,59.61
2019-03-05T21:42:04.067Z,59.27
2019-03-05T21:44:33.885Z,59.37
2019-03-05T21:47:03.678Z,59.44
2019-03-05T21:49:33.539Z,59.51
2019-03-05T21:52:03.784Z,59.57
2019-03-05T21:54:34.622Z,59.34
2019-03-05T21:57:04.767Z,59.21
2019-03-05T21:59:34.535Z,59.28
2019-03-05T22:02:06.641Z,59.29
2019-03-05T22:04:36.873Z,59.70
2019-03-05T22:07:07.286Z,59.67
2019-03-05T22:09:37.075Z,59.94
2019-03-05T22:12:06.822Z,60.38
2019-03-05T22:14:36.972Z,60.19
2019-03-05T22:17:06.719Z,60.31
2019-03-05T22:19:38.311Z,60.19
2019-03-05T22:22:09.652Z,60.63
2019-03-05T22:24:39.455Z,60.66
2019-03-05T22:27:09.247Z,61.15
2019-03-05T22:29:39.058Z,61.13
2019-03-05T22:32:09.261Z,60.90
2019-03-05T22:34:40.515Z,60.82
2019-03-05T22:37:10.350Z,60.86
2019-03-05T22:39:40.118Z,61.53
2019-03-05T22:42:11.836Z,61.78
2019-03-05T22:44:42.545Z,61.97
2019-03-05T22:47:12.415Z,62.28
2019-03-05T22:49:42.228Z,62.58
2019-03-05T22:52:12.107Z,62.72
2019-03-05T22:54:42.286Z,63.09
2019-03-05T22:57:12.234Z,63.31
2019-03-05T22:59:41.960Z,63.74
2019-03-05T23:02:11.905Z,63.98
2019-03-05T23:04:41.913Z,63.33
2019-03-05T23:07:13.541Z,62.96
2019-03-05T23:09:43.169Z,62.29
2019-03-05T23:12:13.189Z,61.54
2019-03-05T23:14:43.008Z,61.72
2019-03-05T23:17:13.308Z,61.12
2019-03-05T23:19:43.468Z,61.16
2019-03-05T23:22:13.968Z,61.08
2019-03-05T23:24:43.848Z,61.05
2019-03-05T23:27:16.048Z,61.55
2019-03-05T23:29:46.227Z,61.91
2019-03-05T23:32:17.168Z,62.43
2019-03-05T23:34:46.887Z,63.07
2019-03-05T23:37:16.942Z,62.54
2019-03-05T23:39:49.088Z,63.22
2019-03-05T23:42:19.151Z,63.50
2019-03-05T23:44:48.851Z,64.20
2019-03-05T23:47:18.647Z,64.58
2019-03-05T23:49:48.470Z,64.51
2019-03-05T23:52:18.271Z,64.91
2019-03-05T23:54:48.038Z,64.95
2019-03-05T23:57:17.781Z,65.52
2019-03-05T23:59:47.505Z,65.84
